createdAt,value
2023-02-06T00:01:29.283Z,-6.21
2023-02-06T00:04:31.601Z,-6.19
2023-02-06T00:07:33.982Z,-6.12
2023-02-06T00:10:36.284Z,-5.85
2023-02-06T00:13:38.554Z,-5.81
2023-02-06T00:16:40.868Z,-5.97
2023-02-06T00:19:44.657Z,-5.97
2023-02-06T00:22:46.968Z,-5.87
2023-02-06T00:25:49.291Z,-5.77
2023-02-06T00:28:51.687Z,-5.86
2023-02-06T00:31:54.025Z,-5.86
2023-02-06T00:34:56.393Z,-5.77
2023-02-06T00:38:00.195Z,-5.50
2023-02-06T00:41:03.126Z,-5.25
2023-02-06T00:44:05.763Z,-5.38
2023-02-06T00:47:08.032Z,-5.76
2023-02-06T00:50:10.614Z,-5.50
2023-02-06T00:53:12.888Z,-4.98
2023-02-06T00:56:15.202Z,-4.92
2023-02-06T00:59:17.569Z,-4.92
2023-02-06T01:02:19.821Z,-4.90
2023-02-06T01:05:22.129Z,-5.04
2023-02-06T01:08:24.423Z,-5.28
2023-02-06T01:11:27.680Z,-5.22
2023-02-06T01:14:30.021Z,-5.26
2023-02-06T01:17:33.381Z,-5.13
2023-02-06T01:20:35.747Z,-5.14
2023-02-06T01:23:40.053Z,-5.01
2023-02-06T01:26:42.409Z,-5.02
2023-02-06T01:29:44.699Z,-5.11
2023-02-06T01:32:47.030Z,-5.08
2023-02-06T01:36:00.124Z,-4.88
2023-02-06T01:39:02.486Z,-4.67
2023-02-06T01:42:04.910Z,-4.92
2023-02-06T01:45:41.276Z,-4.96
2023-02-06T01:48:52.531Z,-4.83
2023-02-06T01:51:58.194Z,-4.62
2023-02-06T01:55:03.766Z,-4.62
2023-02-06T01:58:08.624Z,-4.75
2023-02-06T02:01:11.725Z,-4.93
2023-02-06T02:04:17.987Z,-4.86
2023-02-06T02:07:28.739Z,-4.58
2023-02-06T02:10:31.669Z,-4.81
2023-02-06T02:13:34.409Z,-4.96
2023-02-06T02:16:55.193Z,-5.04
2023-02-06T02:20:22.106Z,-5.14
2023-02-06T02:23:42.380Z,-4.77
2023-02-06T02:26:50.537Z,-4.64
2023-02-06T02:30:35.153Z,-4.78
2023-02-06T02:33:55.701Z,-4.77
2023-02-06T02:37:07.906Z,-4.78
2023-02-06T02:40:36.362Z,-4.69
2023-02-06T02:43:45.594Z,-4.59
2023-02-06T02:46:50.824Z,-4.54
2023-02-06T02:49:53.784Z,-4.48
2023-02-06T02:52:56.318Z,-4.56
2023-02-06T02:56:00.244Z,-4.41
2023-02-06T02:59:14.545Z,-4.28
2023-02-06T03:02:27.587Z,-4.49
2023-02-06T03:05:30.466Z,-4.53
2023-02-06T03:08:39.484Z,-4.49
2023-02-06T03:11:46.158Z,-4.40
2023-02-06T03:14:58.977Z,-4.36
2023-02-06T03:18:20.424Z,-4.37
2023-02-06T03:21:24.313Z,-4.44
2023-02-06T03:24:29.770Z,-4.38
2023-02-06T03:27:33.430Z,-4.39
2023-02-06T03:30:36.048Z,-4.65
2023-02-06T03:33:48.396Z,-4.54
2023-02-06T03:36:50.842Z,-4.68
2023-02-06T03:39:53.195Z,-4.55
2023-02-06T03:43:00.619Z,-4.61
2023-02-06T03:46:05.503Z,-4.70
2023-02-06T03:49:08.751Z,-4.51
2023-02-06T03:52:14.076Z,-4.41
2023-02-06T03:55:21.688Z,-4.22
2023-02-06T03:58:24.746Z,-4.59
2023-02-06T04:01:27.812Z,-4.80
2023-02-06T04:04:32.841Z,-4.83
2023-02-06T04:07:36.520Z,-4.89
2023-02-06T04:10:38.956Z,-4.64
2023-02-06T04:13:41.305Z,-4.80
2023-02-06T04:16:43.691Z,-4.82
2023-02-06T04:19:46.061Z,-4.62
2023-02-06T04:22:48.491Z,-4.67
2023-02-06T04:25:50.772Z,-4.75
2023-02-06T04:28:53.139Z,-5.03
2023-02-06T04:32:02.029Z,-5.05
2023-02-06T04:35:04.521Z,-5.11
2023-02-06T04:38:06.878Z,-5.35
2023-02-06T04:41:09.275Z,-5.54
2023-02-06T04:44:11.592Z,-5.36
2023-02-06T04:47:14.047Z,-5.27
2023-02-06T04:50:17.646Z,-5.19
2023-02-06T04:53:19.911Z,-5.17
2023-02-06T04:56:22.273Z,-5.14
2023-02-06T04:59:24.584Z,-5.29
2023-02-06T05:02:27.066Z,-5.40
2023-02-06T05:05:29.405Z,-5.20
2023-02-06T05:08:31.723Z,-5.12
2023-02-06T05:11:34.475Z,-5.26
2023-02-06T05:14:36.792Z,-5.28
2023-02-06T05:17:39.436Z,-5.19
2023-02-06T05:20:43.234Z,-5.22
2023-02-06T05:23:45.538Z,-5.33
2023-02-06T05:26:47.857Z,-5.35
2023-02-06T05:29:50.123Z,-5.48
2023-02-06T05:32:52.574Z,-5.55
2023-02-06T05:35:54.916Z,-5.69
2023-02-06T05:38:57.265Z,-5.70
2023-02-06T05:41:59.653Z,-5.65
2023-02-06T05:45:01.930Z,-5.64
2023-02-06T05:48:04.438Z,-5.63
2023-02-06T05:51:06.760Z,-5.62
2023-02-06T05:54:09.113Z,-5.57
2023-02-06T05:57:11.823Z,-5.53
2023-02-06T06:00:14.729Z,-5.33
2023-02-06T06:03:17.241Z,-5.31
2023-02-06T06:06:19.533Z,-5.39
2023-02-06T06:09:21.875Z,-5.34
2023-02-06T06:12:24.178Z,-5.33
2023-02-06T06:15:26.468Z,-5.25
2023-02-06T06:18:28.943Z,-5.16
2023-02-06T06:21:31.279Z,-5.09
2023-02-06T06:24:33.570Z,-4.94
2023-02-06T06:27:35.964Z,-5.19
2023-02-06T06:30:38.334Z,-5.29
2023-02-06T06:33:40.845Z,-5.29
2023-02-06T06:36:43.154Z,-5.21
2023-02-06T06:39:45.503Z,-5.29
2023-02-06T06:42:47.834Z,-5.29
2023-02-06T06:45:50.394Z,-5.28
2023-02-06T06:48:52.966Z,-5.64
2023-02-06T06:51:55.271Z,-5.44
2023-02-06T06:54:57.579Z,-5.19
2023-02-06T06:57:59.879Z,-5.34
2023-02-06T07:01:02.438Z,-5.26
2023-02-06T07:04:04.951Z,-5.30
2023-02-06T07:07:07.521Z,-5.49
2023-02-06T07:10:11.810Z,-5.53
2023-02-06T07:13:15.638Z,-5.57
2023-02-06T07:16:18.042Z,-5.73
2023-02-06T07:19:21.481Z,-5.91
2023-02-06T07:22:25.660Z,-6.02
2023-02-06T07:25:28.410Z,-5.89
2023-02-06T07:28:31.899Z,-5.74
2023-02-06T07:31:34.173Z,-5.79
2023-02-06T07:34:36.778Z,-5.89
2023-02-06T07:37:39.138Z,-5.97
2023-02-06T07:40:45.679Z,-5.93
2023-02-06T07:43:48.529Z,-5.96
2023-02-06T07:46:52.881Z,-5.83
2023-02-06T07:49:55.350Z,-5.57
2023-02-06T07:52:57.688Z,-5.12
2023-02-06T07:56:00.363Z,-4.84
2023-02-06T07:59:02.719Z,-4.68
2023-02-06T08:02:05.023Z,-4.67
2023-02-06T08:05:07.730Z,-4.42
2023-02-06T08:08:10.836Z,-4.33
2023-02-06T08:11:18.749Z,-4.25
2023-02-06T08:14:21.091Z,-4.14
2023-02-06T08:17:23.493Z,-4.06
2023-02-06T08:20:25.918Z,-4.12
2023-02-06T08:23:28.302Z,-3.96
2023-02-06T08:26:32.746Z,-3.95
2023-02-06T08:29:42.672Z,-4.04
2023-02-06T08:32:45.190Z,-4.03
2023-02-06T08:35:47.489Z,-4.07
2023-02-06T08:38:50.366Z,-3.90
2023-02-06T08:41:52.740Z,-3.57
2023-02-06T08:44:55.132Z,-3.26
2023-02-06T08:47:57.824Z,-3.19
2023-02-06T08:51:04.890Z,-3.33
2023-02-06T08:54:10.124Z,-3.73
2023-02-06T08:57:13.138Z,-4.30
2023-02-06T09:00:16.601Z,-4.43
2023-02-06T09:03:19.058Z,-4.06
2023-02-06T09:06:21.535Z,-3.37
2023-02-06T09:09:23.873Z,-2.98
2023-02-06T09:12:26.180Z,-3.04
2023-02-06T09:15:28.578Z,-2.89
2023-02-06T09:18:30.987Z,-2.97
2023-02-06T09:21:35.603Z,-2.94
2023-02-06T09:24:38.524Z,-3.17
2023-02-06T09:27:40.841Z,-3.17
2023-02-06T09:30:43.172Z,-3.36
2023-02-06T09:33:45.586Z,-3.33
2023-02-06T09:36:47.964Z,-3.46
2023-02-06T09:39:50.243Z,-3.14
2023-02-06T09:42:54.222Z,-3.12
2023-02-06T09:46:00.711Z,-3.00
2023-02-06T09:49:19.383Z,-2.74
2023-02-06T09:52:36.738Z,-2.90
2023-02-06T09:55:43.390Z,-3.00
2023-02-06T09:59:07.126Z,-2.88
2023-02-06T10:02:24.390Z,-2.77
2023-02-06T10:05:26.685Z,-2.45
2023-02-06T10:08:34.956Z,-2.01
2023-02-06T10:12:10.120Z,-2.00
2023-02-06T10:15:25.885Z,-1.78
2023-02-06T10:18:37.300Z,-1.79
2023-02-06T10:21:45.417Z,-1.62
2023-02-06T10:24:53.541Z,-1.66
2023-02-06T10:27:59.494Z,-1.89
2023-02-06T10:31:25.826Z,-1.99
2023-02-06T10:34:40.350Z,-2.15
2023-02-06T10:38:08.604Z,-2.05
2023-02-06T10:41:32.061Z,-2.23
2023-02-06T10:44:51.432Z,-2.23
2023-02-06T10:47:55.195Z,-1.97
2023-02-06T10:51:21.486Z,-2.34
2023-02-06T10:54:27.801Z,-1.86
2023-02-06T10:57:30.875Z,-1.46
2023-02-06T11:00:33.370Z,-0.88
2023-02-06T11:03:47.707Z,-0.72
2023-02-06T11:06:50.128Z,-0.45
2023-02-06T11:09:53.598Z,-0.06
2023-02-06T11:13:08.270Z,0.25
2023-02-06T11:16:16.804Z,0.35
2023-02-06T11:19:28.050Z,-0.00
2023-02-06T11:22:34.892Z,-0.20
2023-02-06T11:25:44.748Z,-0.30
2023-02-06T11:28:53.288Z,0.23
2023-02-06T11:31:58.737Z,0.70
2023-02-06T11:35:06.637Z,0.66
2023-02-06T11:38:22.819Z,0.06
2023-02-06T11:41:25.948Z,0.28
2023-02-06T11:44:30.233Z,-0.00
2023-02-06T11:47:37.605Z,-0.59
2023-02-06T11:50:41.351Z,-0.51
2023-02-06T11:54:03.733Z,-0.77
2023-02-06T11:57:21.573Z,-1.02
2023-02-06T12:00:24.798Z,-0.80
2023-02-06T12:03:56.040Z,-0.79
2023-02-06T12:07:30.129Z,-0.84
2023-02-06T12:10:36.400Z,-0.58
2023-02-06T12:13:43.679Z,-0.81
2023-02-06T12:16:46.836Z,-0.61
2023-02-06T12:20:00.381Z,-0.56
2023-02-06T12:23:31.815Z,-0.48
2023-02-06T12:26:38.226Z,-0.31
2023-02-06T12:29:56.525Z,-0.30
2023-02-06T12:33:38.323Z,-0.27
2023-02-06T12:36:53.409Z,-0.29
2023-02-06T12:39:55.802Z,0.00
2023-02-06T12:43:02.881Z,0.38
2023-02-06T12:46:10.480Z,0.45
2023-02-06T12:49:21.600Z,0.34
2023-02-06T12:52:26.117Z,0.47
2023-02-06T12:55:36.508Z,0.40
2023-02-06T12:58:44.763Z,0.66
2023-02-06T13:01:58.333Z,0.92
2023-02-06T13:05:05.860Z,0.73
2023-02-06T13:08:10.576Z,0.79
2023-02-06T13:11:25.287Z,0.97
2023-02-06T13:14:29.768Z,0.74
2023-02-06T13:17:40.306Z,0.84
2023-02-06T13:21:17.757Z,1.20
2023-02-06T13:24:21.144Z,1.14
2023-02-06T13:27:38.769Z,1.22
2023-02-06T13:30:46.048Z,1.10
2023-02-06T13:33:52.136Z,0.82
2023-02-06T13:36:54.592Z,0.70
2023-02-06T13:40:24.606Z,0.75
2023-02-06T13:43:29.372Z,0.60
2023-02-06T13:47:10.705Z,0.79
2023-02-06T13:50:25.081Z,0.84
2023-02-06T13:53:33.727Z,0.71
2023-02-06T13:57:00.786Z,0.68
2023-02-06T14:00:19.598Z,0.25
2023-02-06T14:03:26.745Z,0.64
2023-02-06T14:06:44.799Z,0.13
2023-02-06T14:10:07.050Z,0.07
2023-02-06T14:13:29.457Z,-0.15
2023-02-06T14:17:12.917Z,-0.11
2023-02-06T14:20:34.014Z,-0.17
2023-02-06T14:23:55.293Z,-0.49
2023-02-06T14:27:09.579Z,-1.07
2023-02-06T14:30:14.544Z,-1.25
2023-02-06T14:33:44.661Z,-1.11
2023-02-06T14:37:16.767Z,-1.17
2023-02-06T14:40:25.100Z,-1.33
2023-02-06T14:43:30.776Z,-1.36
2023-02-06T14:46:33.414Z,-1.61
2023-02-06T14:49:38.331Z,-1.85
2023-02-06T14:52:40.952Z,-2.29
2023-02-06T14:55:48.192Z,-2.41
2023-02-06T14:58:51.593Z,-2.33
2023-02-06T15:01:56.543Z,-2.42
2023-02-06T15:04:59.844Z,-2.63
2023-02-06T15:08:04.307Z,-2.76
2023-02-06T15:11:15.568Z,-2.81
2023-02-06T15:14:23.652Z,-3.13
2023-02-06T15:17:26.934Z,-3.46
2023-02-06T15:20:32.344Z,-3.63
2023-02-06T15:23:57.633Z,-3.89
2023-02-06T15:27:02.558Z,-3.91
2023-02-06T15:30:26.035Z,-4.03
2023-02-06T15:33:36.041Z,-4.27
2023-02-06T15:36:39.833Z,-4.14
2023-02-06T15:39:42.639Z,-4.27
2023-02-06T15:42:46.308Z,-4.25
2023-02-06T15:45:50.862Z,-4.47
2023-02-06T15:48:55.126Z,-4.33
2023-02-06T15:51:58.522Z,-4.14
2023-02-06T15:55:01.189Z,-3.92
2023-02-06T15:58:05.403Z,-3.86
2023-02-06T16:01:17.783Z,-3.66
2023-02-06T16:04:27.945Z,-3.69
2023-02-06T16:07:33.032Z,-3.34
2023-02-06T16:10:39.428Z,-3.32
2023-02-06T16:13:42.173Z,-3.47
2023-02-06T16:16:56.491Z,-3.29
2023-02-06T16:20:02.816Z,-3.17
2023-02-06T16:23:29.276Z,-2.97
2023-02-06T16:26:47.202Z,-3.13
2023-02-06T16:29:52.946Z,-3.13
2023-02-06T16:32:56.657Z,-3.12
2023-02-06T16:35:58.826Z,-3.33
2023-02-06T16:39:04.537Z,-3.06
2023-02-06T16:42:07.179Z,-3.01
2023-02-06T16:45:18.577Z,-2.95
2023-02-06T16:48:20.918Z,-2.83
2023-02-06T16:51:25.792Z,-2.78
2023-02-06T16:54:30.134Z,-2.71
2023-02-06T16:57:43.404Z,-2.86
2023-02-06T17:00:45.910Z,-2.78
2023-02-06T17:03:49.244Z,-2.66
2023-02-06T17:06:52.302Z,-2.48
2023-02-06T17:09:55.733Z,-2.32
2023-02-06T17:12:58.084Z,-2.40
2023-02-06T17:16:00.417Z,-2.38
2023-02-06T17:19:02.809Z,-2.62
2023-02-06T17:22:06.040Z,-2.63
2023-02-06T17:25:08.977Z,-2.39
2023-02-06T17:28:15.288Z,-2.50
2023-02-06T17:31:17.809Z,-2.46
2023-02-06T17:34:20.286Z,-2.27
2023-02-06T17:37:22.697Z,-2.50
2023-02-06T17:40:33.331Z,-2.59
2023-02-06T17:43:37.577Z,-2.32
2023-02-06T17:46:40.323Z,-2.66
2023-02-06T17:49:42.863Z,-2.49
2023-02-06T17:52:46.455Z,-2.49
2023-02-06T17:55:48.840Z,-2.63
2023-02-06T17:58:51.308Z,-2.81
2023-02-06T18:01:53.667Z,-2.87
2023-02-06T18:04:56.311Z,-2.74
2023-02-06T18:07:58.670Z,-2.69
2023-02-06T18:11:01.119Z,-2.68
2023-02-06T18:14:03.478Z,-2.83
2023-02-06T18:17:05.865Z,-3.13
2023-02-06T18:20:09.206Z,-2.93
2023-02-06T18:23:12.476Z,-3.15
2023-02-06T18:26:14.916Z,-3.31
2023-02-06T18:29:17.230Z,-3.20
2023-02-06T18:32:19.807Z,-3.18
2023-02-06T18:35:22.188Z,-3.13
2023-02-06T18:38:25.100Z,-3.05
2023-02-06T18:41:46.722Z,-3.07
2023-02-06T18:44:49.081Z,-3.09
2023-02-06T18:47:51.849Z,-3.36
2023-02-06T18:50:54.722Z,-3.18
2023-02-06T18:53:59.190Z,-3.30
2023-02-06T18:57:01.456Z,-3.45
2023-02-06T19:00:06.322Z,-3.57
2023-02-06T19:03:08.706Z,-3.59
2023-02-06T19:06:13.448Z,-3.54
2023-02-06T19:09:16.504Z,-3.70
2023-02-06T19:12:18.833Z,-3.78
2023-02-06T19:15:21.389Z,-3.85
2023-02-06T19:18:37.557Z,-3.83
2023-02-06T19:21:41.467Z,-3.93
2023-02-06T19:24:44.601Z,-4.01
2023-02-06T19:27:46.929Z,-4.15
2023-02-06T19:30:49.385Z,-4.22
2023-02-06T19:33:58.371Z,-4.31
2023-02-06T19:37:00.703Z,-4.32
2023-02-06T19:40:03.063Z,-4.34
2023-02-06T19:43:05.364Z,-4.55
2023-02-06T19:46:11.908Z,-4.60
2023-02-06T19:49:14.355Z,-4.38
2023-02-06T19:52:16.688Z,-4.47
2023-02-06T19:55:19.424Z,-4.61
2023-02-06T19:58:21.698Z,-4.53
2023-02-06T20:01:24.943Z,-4.18
2023-02-06T20:04:30.780Z,-4.02
2023-02-06T20:07:33.373Z,-4.31
2023-02-06T20:10:38.342Z,-4.17
2023-02-06T20:13:41.629Z,-4.08
2023-02-06T20:16:44.977Z,-3.96
2023-02-06T20:19:47.382Z,-4.16
2023-02-06T20:22:49.719Z,-4.05
2023-02-06T20:25:52.276Z,-3.97
2023-02-06T20:28:54.952Z,-4.10
2023-02-06T20:31:57.775Z,-4.07
2023-02-06T20:35:00.173Z,-4.22
2023-02-06T20:38:02.538Z,-4.48
2023-02-06T20:41:06.237Z,-4.60
2023-02-06T20:44:08.998Z,-4.79
2023-02-06T20:47:11.358Z,-5.03
2023-02-06T20:50:14.594Z,-5.30
2023-02-06T20:53:16.939Z,-5.18
2023-02-06T20:56:20.452Z,-5.33
2023-02-06T20:59:23.272Z,-5.41
2023-02-06T21:02:25.829Z,-5.39
2023-02-06T21:05:28.334Z,-5.61
2023-02-06T21:08:30.749Z,-5.70
2023-02-06T21:11:35.977Z,-5.76
2023-02-06T21:14:38.396Z,-5.71
2023-02-06T21:17:40.706Z,-5.74
2023-02-06T21:20:43.030Z,-6.09
2023-02-06T21:23:47.090Z,-6.44
2023-02-06T21:26:49.542Z,-6.56
2023-02-06T21:29:51.938Z,-6.55
2023-02-06T21:32:55.702Z,-6.46
2023-02-06T21:35:58.266Z,-6.35
2023-02-06T21:39:01.222Z,-6.19
2023-02-06T21:42:03.552Z,-6.05
2023-02-06T21:45:06.312Z,-5.99
2023-02-06T21:48:09.178Z,-5.87
2023-02-06T21:51:17.302Z,-5.64
2023-02-06T21:54:19.641Z,-5.31
2023-02-06T21:57:21.989Z,-5.33
2023-02-06T22:00:24.504Z,-5.14
2023-02-06T22:03:26.899Z,-5.12
2023-02-06T22:06:29.803Z,-5.24
2023-02-06T22:09:32.202Z,-5.33
2023-02-06T22:12:35.266Z,-5.12
2023-02-06T22:15:37.844Z,-4.67
2023-02-06T22:18:41.254Z,-4.59
2023-02-06T22:21:43.664Z,-4.56
2023-02-06T22:24:46.147Z,-4.54
2023-02-06T22:27:48.708Z,-4.73
2023-02-06T22:30:51.136Z,-4.70
2023-02-06T22:33:53.945Z,-4.70
2023-02-06T22:36:56.187Z,-4.66
2023-02-06T22:39:58.536Z,-4.65
2023-02-06T22:43:00.836Z,-4.71
2023-02-06T22:46:03.770Z,-4.78
2023-02-06T22:49:07.361Z,-4.61
2023-02-06T22:52:29.704Z,-4.58
2023-02-06T22:55:52.094Z,-4.60
2023-02-06T22:58:56.083Z,-4.52
2023-02-06T23:01:59.143Z,-4.66
2023-02-06T23:05:01.479Z,-4.60
2023-02-06T23:08:03.981Z,-4.67
2023-02-06T23:11:06.855Z,-4.68
2023-02-06T23:14:09.335Z,-4.73
2023-02-06T23:17:11.986Z,-4.77
2023-02-06T23:20:14.608Z,-4.73
2023-02-06T23:23:16.920Z,-4.90
2023-02-06T23:26:20.377Z,-4.66
2023-02-06T23:29:23.991Z,-4.67
2023-02-06T23:32:26.305Z,-4.80
2023-02-06T23:35:28.772Z,-4.95
2023-02-06T23:38:31.165Z,-5.20
2023-02-06T23:41:34.054Z,-4.99
2023-02-06T23:44:36.344Z,-4.92
2023-02-06T23:47:38.592Z,-4.91
2023-02-06T23:50:40.982Z,-4.83
2023-02-06T23:53:43.414Z,-4.78
2023-02-06T23:56:45.694Z,-4.83
2023-02-06T23:59:49.112Z,-5.05
